Shahriyar Khalilzade

Scout - Qarabag
19 Aug 2027
Donnerstag
Verarbeitung

Persönlichkeit

Anpassungsfähigkeit (1) Ehrgeiz (16) Kontroverse (16) Loyalität (18) Druck (4) Professionalität (20) Fairness (17) Temperament (4)

Profil

Trainerstil Demokratisch
Lizenz Nationale B
Entschlossenheit 9
Menschenführung 6
Motivation 10
Disziplin 6
Arbeitszufriedenheit
100%
Ermüdung
0%
Rolle Scout
Gehalt 79.8K p/W
Vertrag 14.03.2029

Leistung

Verhalten Gut
Trainingseffektivität
39%
Spielerentwicklung
30%
Verletzungsprävention
50%
Taktische Umsetzung
30%

Letzte Ereignisse

Spieler begutachtet jetzt
Nahm an einer Scouting-Besprechung teil jetzt
Nahm an einer Scouting-Besprechung teil 7T her
Empfahl ein Transferziel 7T her
Empfahl ein Transferziel 7T her
Spieler begutachtet 7T her
Spiel beobachtet 7T her
Spiel beobachtet 7T her

Aktuell beobachtet

60
Spieler Verein Status Fähigkeit Vertrauen Beobachtet Zuletzt beobachtet Letzte Stimme
Freddy Murillo Valencia Aktiv 111 / 131 40% 2 16.08.2027 -
Ibrahim Sabiu Bendel Insurance Aktiv 90 / 91 40% 2 16.08.2027 -
Joel Ezra Enyimba Aktiv 94 / 91 40% 1 16.08.2027 -
Ángel Aguayo Sol de America Aktiv 87 / 85 40% 2 12.08.2027 -
Mikkel Hope Haugesund Aktiv 110 / 97 40% 1 12.08.2027 -
Hervin Goyes Deportivo Pasto Aktiv 113 / 130 40% 1 12.08.2027 -
Eduardo Felicíssimo Sporting CP Aktiv 123 / 121 40% 3 07.08.2027 -
Mauro Carrizo Atlético Tucumán Aktiv 94 / 113 40% 2 07.08.2027 -
Daniel Costa Sporting CP Aktiv 93 / 98 40% 3 07.08.2027 -
Edoardo Tartaglia Renate Aktiv 105 / 105 40% 3 02.08.2027 -
Bradley de Jesus Tondela Aktiv 96 / 110 40% 1 02.08.2027 -
Iker Córdoba Valencia Aktiv 116 / 119 40% 1 02.08.2027 -
Franco Barrionuevo Racing Club Aktiv 106 / 96 40% 1 31.07.2027 -
Leonardo Sosa Rosario Central Aktiv 93 / 92 40% 1 31.07.2027 -
Renato Ardissono San Lorenzo Aktiv 87 / 108 40% 1 19.07.2027 -
Grant Leveille DC United Aktiv 79 / 113 40% 1 19.07.2027 -
Luca Neu Utrecht Aktiv 92 / 110 40% 1 19.07.2027 -
Muhammadyusuf Sobirov Bunyodkor Aktiv 95 / 100 40% 1 15.07.2027 -
Juan Esteban Gómez Ankaragucu Aktiv 92 / 79 40% 1 15.07.2027 -
Enzo Gramajo Vélez Aktiv 87 / 89 40% 1 15.07.2027 -
Vasco Santos Oliveirense Aktiv 96 / 101 40% 2 14.07.2027 -
Rayhan Momade Sporting CP Aktiv 94 / 104 40% 2 14.07.2027 -
Samuel Lucero Defensa y Justicia Aktiv 125 / 131 40% 1 14.07.2027 -
Alexandro Maidana Talleres Aktiv 126 / 137 40% 6 11.07.2027 -
Sabil Hansen Randers Aktiv 104 / 131 40% 2 11.07.2027 -
Jayden Spier Willem II Aktiv 111 / 102 40% 1 08.07.2027 -
Kai Andrews Coventry City Aktiv 110 / 115 40% 1 08.07.2027 -
Baran Gezek Alanyaspor Aktiv 114 / 125 40% 2 07.07.2027 -
Guram Japaridze Dinamo Batumi Aktiv 97 / 88 40% 1 06.07.2027 -
Krešimir Radoš HNK Gorica Aktiv 107 / 119 40% 1 06.07.2027 -
Rafael Santos Borré Torino Aktiv 128 / 135 40% 2 05.07.2027 -
Germán Berterame Vélez Aktiv 135 / 140 40% 1 05.07.2027 -
Álvaro Navoni Tigre Aktiv 92 / 101 40% 1 30.06.2027 -
Agustín Obregón River Plate Aktiv 98 / 100 40% 1 30.06.2027 -
Martim Cunha Porto Aktiv 101 / 115 40% 1 24.06.2027 -
João Fonseca Benfica Aktiv 105 / 125 40% 1 24.06.2027 -
Darnell Furlong Ipswich Town Aktiv 124 / 117 40% 1 15.06.2027 -
Deano Van Rooyen Neftchi Aktiv 120 / 104 69% 1 02.06.2027 Befürworten
Darryl Bakola Padova Aktiv 102 / 109 40% 3 29.05.2027 -
Josh Stephenson Brentford Aktiv 110 / 113 40% 2 29.05.2027 -
Gonçalo Oliveira Benfica Aktiv 113 / 114 40% 1 29.05.2027 -
Zaïd BafdilI Sporting CP Aktiv 85 / 103 40% 2 21.05.2027 -
Massien Ghaddari Utrecht Aktiv 106 / 102 40% 1 21.05.2027 -
Finley McAllister Grimsby Town Aktiv 88 / 89 40% 1 16.05.2027 -
Olaniyi Saheed Kwara United Aktiv 89 / 100 40% 1 16.05.2027 -
Latrell Aken Groningen Aktiv 106 / 107 40% 1 16.05.2027 -
Samuel Posada Leones Aktiv 82 / 100 40% 1 10.05.2027 -
Dmitry Pestryakov Dinamo Moscow Aktiv 115 / 128 40% 1 10.05.2027 -
Nazareno Kihm Ferro Carril Oeste Aktiv 118 / 128 40% 2 06.05.2027 -
Thijs Kraaijeveld Feyenoord Aktiv 115 / 114 40% 1 25.04.2027 -
Zane Albarus Cambridge United Aktiv 96 / 98 40% 2 24.04.2027 -
Michal Rosiak Twente Aktiv 86 / 103 40% 1 18.04.2027 -
Daniel Padilla Zamora Aktiv 91 / 107 40% 1 18.04.2027 -
João Capucho Benfica Aktiv 97 / 97 40% 1 11.04.2027 -
Bernardo Lima Porto Aktiv 104 / 98 40% 1 11.04.2027 -
Kamran Ramazanov Inter Abgelehnt 117 / 118 65% 1 02.01.2027 Ablehnen
Eren Aydın Zira Abgelehnt 101 / 122 65% 1 01.01.2027 Ablehnen
Kamran Guseynov Khazar Aktiv 117 / 124 65% 1 31.08.2026 Befürworten
Fabricio Díaz San Lorenzo Aktiv 81 / 82 40% 1 01.08.2026 -
Deniz Ertaş Konyaspor Aktiv 113 / 128 40% 1 01.08.2026 -